sensor_id;sensor_type;location;lat;lon;timestamp;P1;durP1;ratioP1;P2;durP2;ratioP2
39880;SDS011;25554;44.954;10.068;2023-07-29T00:02:25;14.55;;;7.53;;
39880;SDS011;25554;44.954;10.068;2023-07-29T00:04:55;12.85;;;7.07;;
39880;SDS011;25554;44.954;10.068;2023-07-29T00:09:47;13.70;;;8.52;;
39880;SDS011;25554;44.954;10.068;2023-07-29T00:12:14;12.95;;;8.63;;
39880;SDS011;25554;44.954;10.068;2023-07-29T00:17:06;13.73;;;7.32;;
39880;SDS011;25554;44.954;10.068;2023-07-29T00:21:59;17.88;;;9.10;;
39880;SDS011;25554;44.954;10.068;2023-07-29T00:24:25;11.70;;;8.55;;
39880;SDS011;25554;44.954;10.068;2023-07-29T00:26:52;19.23;;;9.32;;
39880;SDS011;25554;44.954;10.068;2023-07-29T00:29:20;14.02;;;9.23;;
39880;SDS011;25554;44.954;10.068;2023-07-29T00:34:13;9.63;;;7.93;;
39880;SDS011;25554;44.954;10.068;2023-07-29T00:36:44;15.25;;;9.57;;
39880;SDS011;25554;44.954;10.068;2023-07-29T00:39:11;14.93;;;10.02;;
39880;SDS011;25554;44.954;10.068;2023-07-29T00:41:38;13.40;;;8.93;;
39880;SDS011;25554;44.954;10.068;2023-07-29T00:44:05;10.55;;;8.32;;
39880;SDS011;25554;44.954;10.068;2023-07-29T00:46:32;12.02;;;9.57;;
39880;SDS011;25554;44.954;10.068;2023-07-29T00:49:00;11.27;;;9.25;;
39880;SDS011;25554;44.954;10.068;2023-07-29T00:51:27;11.73;;;9.55;;
39880;SDS011;25554;44.954;10.068;2023-07-29T00:53:56;14.27;;;9.75;;
39880;SDS011;25554;44.954;10.068;2023-07-29T00:56:22;12.90;;;9.52;;
39880;SDS011;25554;44.954;10.068;2023-07-29T00:58:49;14.80;;;10.30;;
39880;SDS011;25554;44.954;10.068;2023-07-29T01:01:15;12.63;;;9.43;;
39880;SDS011;25554;44.954;10.068;2023-07-29T01:03:42;14.93;;;10.77;;
39880;SDS011;25554;44.954;10.068;2023-07-29T01:16:50;12.43;;;9.68;;
39880;SDS011;25554;44.954;10.068;2023-07-29T01:19:46;16.55;;;10.60;;
39880;SDS011;25554;44.954;10.068;2023-07-29T01:22:24;17.33;;;10.25;;
39880;SDS011;25554;44.954;10.068;2023-07-29T01:24:50;20.00;;;10.15;;
39880;SDS011;25554;44.954;10.068;2023-07-29T01:27:17;14.57;;;10.68;;
39880;SDS011;25554;44.954;10.068;2023-07-29T01:32:23;21.58;;;11.27;;
39880;SDS011;25554;44.954;10.068;2023-07-29T01:34:56;16.42;;;11.35;;
39880;SDS011;25554;44.954;10.068;2023-07-29T01:39:56;12.38;;;11.02;;
39880;SDS011;25554;44.954;10.068;2023-07-29T01:42:24;14.55;;;11.82;;
39880;SDS011;25554;44.954;10.068;2023-07-29T01:44:52;13.15;;;10.27;;
39880;SDS011;25554;44.954;10.068;2023-07-29T01:47:18;14.48;;;11.38;;
39880;SDS011;25554;44.954;10.068;2023-07-29T01:49:48;15.02;;;11.57;;
39880;SDS011;25554;44.954;10.068;2023-07-29T01:54:40;15.82;;;11.48;;
39880;SDS011;25554;44.954;10.068;2023-07-29T01:59:33;17.38;;;10.93;;
39880;SDS011;25554;44.954;10.068;2023-07-29T02:01:59;14.02;;;10.65;;
39880;SDS011;25554;44.954;10.068;2023-07-29T02:04:26;14.55;;;10.27;;
39880;SDS011;25554;44.954;10.068;2023-07-29T02:06:52;12.30;;;10.13;;
39880;SDS011;25554;44.954;10.068;2023-07-29T02:09:20;14.30;;;10.20;;
39880;SDS011;25554;44.954;10.068;2023-07-29T02:11:47;14.23;;;10.65;;
39880;SDS011;25554;44.954;10.068;2023-07-29T02:14:14;15.02;;;10.32;;
39880;SDS011;25554;44.954;10.068;2023-07-29T02:19:07;12.82;;;10.38;;
39880;SDS011;25554;44.954;10.068;2023-07-29T02:24:00;15.73;;;10.82;;
39880;SDS011;25554;44.954;10.068;2023-07-29T02:26:26;19.10;;;12.77;;
39880;SDS011;25554;44.954;10.068;2023-07-29T02:28:53;15.45;;;11.90;;
39880;SDS011;25554;44.954;10.068;2023-07-29T02:33:47;15.63;;;12.27;;
39880;SDS011;25554;44.954;10.068;2023-07-29T02:36:15;17.42;;;12.65;;
39880;SDS011;25554;44.954;10.068;2023-07-29T02:38:42;15.52;;;11.73;;
39880;SDS011;25554;44.954;10.068;2023-07-29T02:41:10;14.35;;;12.40;;
39880;SDS011;25554;44.954;10.068;2023-07-29T02:43:38;13.75;;;11.45;;
39880;SDS011;25554;44.954;10.068;2023-07-29T02:46:07;14.18;;;11.35;;
39880;SDS011;25554;44.954;10.068;2023-07-29T02:48:33;16.58;;;11.23;;
39880;SDS011;25554;44.954;10.068;2023-07-29T02:51:00;13.68;;;11.55;;
39880;SDS011;25554;44.954;10.068;2023-07-29T02:53:26;16.23;;;11.95;;
39880;SDS011;25554;44.954;10.068;2023-07-29T02:55:53;15.60;;;12.65;;
39880;SDS011;25554;44.954;10.068;2023-07-29T02:58:20;22.98;;;13.80;;
39880;SDS011;25554;44.954;10.068;2023-07-29T03:00:46;12.60;;;11.10;;
39880;SDS011;25554;44.954;10.068;2023-07-29T03:03:14;18.55;;;12.85;;
39880;SDS011;25554;44.954;10.068;2023-07-29T03:05:42;15.02;;;11.77;;
39880;SDS011;25554;44.954;10.068;2023-07-29T03:08:09;16.52;;;12.18;;
39880;SDS011;25554;44.954;10.068;2023-07-29T03:10:35;12.95;;;11.18;;
39880;SDS011;25554;44.954;10.068;2023-07-29T03:13:02;16.95;;;11.15;;
39880;SDS011;25554;44.954;10.068;2023-07-29T03:15:29;14.68;;;10.52;;
39880;SDS011;25554;44.954;10.068;2023-07-29T03:17:55;15.65;;;12.18;;
39880;SDS011;25554;44.954;10.068;2023-07-29T03:20:22;13.40;;;11.20;;
39880;SDS011;25554;44.954;10.068;2023-07-29T03:22:49;11.85;;;9.95;;
39880;SDS011;25554;44.954;10.068;2023-07-29T03:25:15;13.40;;;9.52;;
39880;SDS011;25554;44.954;10.068;2023-07-29T03:30:08;14.85;;;9.77;;
39880;SDS011;25554;44.954;10.068;2023-07-29T03:32:35;12.93;;;9.45;;
39880;SDS011;25554;44.954;10.068;2023-07-29T03:35:02;10.48;;;9.23;;
39880;SDS011;25554;44.954;10.068;2023-07-29T03:37:28;12.75;;;8.68;;
39880;SDS011;25554;44.954;10.068;2023-07-29T03:39:56;13.10;;;9.55;;
39880;SDS011;25554;44.954;10.068;2023-07-29T03:42:22;11.55;;;8.95;;
39880;SDS011;25554;44.954;10.068;2023-07-29T03:44:49;12.80;;;8.65;;
39880;SDS011;25554;44.954;10.068;2023-07-29T03:47:15;12.40;;;9.18;;
39880;SDS011;25554;44.954;10.068;2023-07-29T03:49:43;10.30;;;8.82;;
39880;SDS011;25554;44.954;10.068;2023-07-29T03:52:10;10.55;;;8.32;;
39880;SDS011;25554;44.954;10.068;2023-07-29T03:54:37;13.55;;;9.80;;
39880;SDS011;25554;44.954;10.068;2023-07-29T03:59:29;10.60;;;8.63;;
39880;SDS011;25554;44.954;10.068;2023-07-29T04:01:56;12.02;;;8.85;;
39880;SDS011;25554;44.954;10.068;2023-07-29T04:04:23;12.20;;;9.10;;
39880;SDS011;25554;44.954;10.068;2023-07-29T04:06:49;13.63;;;9.93;;
39880;SDS011;25554;44.954;10.068;2023-07-29T04:09:16;16.98;;;10.20;;
39880;SDS011;25554;44.954;10.068;2023-07-29T04:11:42;12.88;;;9.90;;
39880;SDS011;25554;44.954;10.068;2023-07-29T04:16:35;13.50;;;10.05;;
39880;SDS011;25554;44.954;10.068;2023-07-29T04:19:02;10.98;;;9.88;;
39880;SDS011;25554;44.954;10.068;2023-07-29T04:23:54;16.63;;;9.60;;
39880;SDS011;25554;44.954;10.068;2023-07-29T04:26:21;12.07;;;10.10;;
39880;SDS011;25554;44.954;10.068;2023-07-29T04:28:47;12.57;;;9.88;;
39880;SDS011;25554;44.954;10.068;2023-07-29T04:33:40;11.57;;;9.70;;
39880;SDS011;25554;44.954;10.068;2023-07-29T04:36:07;11.63;;;9.18;;
39880;SDS011;25554;44.954;10.068;2023-07-29T04:38:34;11.32;;;9.38;;
39880;SDS011;25554;44.954;10.068;2023-07-29T04:43:27;13.70;;;9.60;;
39880;SDS011;25554;44.954;10.068;2023-07-29T04:45:56;10.95;;;9.40;;
39880;SDS011;25554;44.954;10.068;2023-07-29T04:48:23;12.57;;;9.48;;
39880;SDS011;25554;44.954;10.068;2023-07-29T04:50:50;14.48;;;9.68;;
39880;SDS011;25554;44.954;10.068;2023-07-29T04:53:16;10.82;;;9.18;;
39880;SDS011;25554;44.954;10.068;2023-07-29T04:58:09;13.65;;;8.68;;
39880;SDS011;25554;44.954;10.068;2023-07-29T05:00:36;11.07;;;8.23;;
39880;SDS011;25554;44.954;10.068;2023-07-29T05:03:02;10.73;;;9.30;;
39880;SDS011;25554;44.954;10.068;2023-07-29T05:05:29;12.05;;;9.35;;
39880;SDS011;25554;44.954;10.068;2023-07-29T05:07:56;12.80;;;9.00;;
39880;SDS011;25554;44.954;10.068;2023-07-29T05:10:23;10.50;;;9.40;;
39880;SDS011;25554;44.954;10.068;2023-07-29T05:12:50;13.88;;;10.02;;
39880;SDS011;25554;44.954;10.068;2023-07-29T05:17:44;15.00;;;9.32;;
39880;SDS011;25554;44.954;10.068;2023-07-29T05:20:11;11.20;;;9.23;;
39880;SDS011;25554;44.954;10.068;2023-07-29T05:22:37;16.10;;;10.25;;
39880;SDS011;25554;44.954;10.068;2023-07-29T05:25:04;13.68;;;10.50;;
39880;SDS011;25554;44.954;10.068;2023-07-29T05:27:31;16.05;;;9.27;;
39880;SDS011;25554;44.954;10.068;2023-07-29T05:29:57;12.52;;;8.85;;
39880;SDS011;25554;44.954;10.068;2023-07-29T05:34:50;11.18;;;8.25;;
39880;SDS011;25554;44.954;10.068;2023-07-29T05:37:17;13.88;;;8.80;;
39880;SDS011;25554;44.954;10.068;2023-07-29T05:39:43;12.82;;;8.80;;
39880;SDS011;25554;44.954;10.068;2023-07-29T05:42:10;13.48;;;8.75;;
39880;SDS011;25554;44.954;10.068;2023-07-29T05:44:37;12.85;;;8.38;;
39880;SDS011;25554;44.954;10.068;2023-07-29T05:49:30;17.35;;;8.80;;
39880;SDS011;25554;44.954;10.068;2023-07-29T05:51:56;12.20;;;8.55;;
39880;SDS011;25554;44.954;10.068;2023-07-29T05:54:23;13.27;;;8.68;;
39880;SDS011;25554;44.954;10.068;2023-07-29T05:56:49;13.18;;;8.88;;
39880;SDS011;25554;44.954;10.068;2023-07-29T05:59:16;29.02;;;9.15;;
39880;SDS011;25554;44.954;10.068;2023-07-29T06:01:43;14.18;;;8.73;;
39880;SDS011;25554;44.954;10.068;2023-07-29T06:04:09;19.50;;;9.55;;
39880;SDS011;25554;44.954;10.068;2023-07-29T06:06:36;14.45;;;9.05;;
39880;SDS011;25554;44.954;10.068;2023-07-29T06:09:02;17.27;;;8.90;;
39880;SDS011;25554;44.954;10.068;2023-07-29T06:11:29;13.63;;;8.80;;
39880;SDS011;25554;44.954;10.068;2023-07-29T06:13:56;15.65;;;10.25;;
39880;SDS011;25554;44.954;10.068;2023-07-29T06:16:22;12.85;;;10.77;;
39880;SDS011;25554;44.954;10.068;2023-07-29T06:18:49;11.70;;;8.55;;
39880;SDS011;25554;44.954;10.068;2023-07-29T06:21:18;12.57;;;9.25;;
39880;SDS011;25554;44.954;10.068;2023-07-29T06:23:45;10.85;;;9.32;;
39880;SDS011;25554;44.954;10.068;2023-07-29T06:26:12;9.18;;;7.43;;
39880;SDS011;25554;44.954;10.068;2023-07-29T06:28:38;13.00;;;8.80;;
39880;SDS011;25554;44.954;10.068;2023-07-29T06:31:05;12.90;;;8.63;;
39880;SDS011;25554;44.954;10.068;2023-07-29T06:33:32;9.75;;;7.15;;
39880;SDS011;25554;44.954;10.068;2023-07-29T06:35:58;14.88;;;7.28;;
39880;SDS011;25554;44.954;10.068;2023-07-29T06:38:25;12.70;;;6.95;;
39880;SDS011;25554;44.954;10.068;2023-07-29T06:40:51;11.15;;;7.75;;
39880;SDS011;25554;44.954;10.068;2023-07-29T06:43:18;9.85;;;7.25;;
39880;SDS011;25554;44.954;10.068;2023-07-29T06:45:44;11.98;;;6.80;;
39880;SDS011;25554;44.954;10.068;2023-07-29T06:48:11;9.68;;;6.97;;
39880;SDS011;25554;44.954;10.068;2023-07-29T06:50:38;9.27;;;6.38;;
39880;SDS011;25554;44.954;10.068;2023-07-29T06:53:04;12.13;;;7.15;;
39880;SDS011;25554;44.954;10.068;2023-07-29T06:55:31;14.15;;;7.43;;
39880;SDS011;25554;44.954;10.068;2023-07-29T06:57:58;11.35;;;7.18;;
39880;SDS011;25554;44.954;10.068;2023-07-29T07:00:24;10.10;;;6.68;;
39880;SDS011;25554;44.954;10.068;2023-07-29T07:02:51;8.65;;;5.50;;
39880;SDS011;25554;44.954;10.068;2023-07-29T07:05:17;9.30;;;5.60;;
39880;SDS011;25554;44.954;10.068;2023-07-29T07:07:44;7.85;;;5.63;;
39880;SDS011;25554;44.954;10.068;2023-07-29T07:10:10;7.00;;;4.50;;
39880;SDS011;25554;44.954;10.068;2023-07-29T07:12:37;6.78;;;4.68;;
39880;SDS011;25554;44.954;10.068;2023-07-29T07:15:04;8.57;;;5.32;;
39880;SDS011;25554;44.954;10.068;2023-07-29T07:17:30;7.70;;;4.90;;
39880;SDS011;25554;44.954;10.068;2023-07-29T07:19:57;6.03;;;4.70;;
39880;SDS011;25554;44.954;10.068;2023-07-29T07:22:23;6.88;;;4.25;;
39880;SDS011;25554;44.954;10.068;2023-07-29T07:24:50;10.50;;;3.47;;
39880;SDS011;25554;44.954;10.068;2023-07-29T07:27:16;6.65;;;4.38;;
39880;SDS011;25554;44.954;10.068;2023-07-29T07:29:43;5.57;;;3.55;;
39880;SDS011;25554;44.954;10.068;2023-07-29T07:32:10;11.27;;;7.18;;
39880;SDS011;25554;44.954;10.068;2023-07-29T07:34:36;15.00;;;9.20;;
39880;SDS011;25554;44.954;10.068;2023-07-29T07:37:03;6.25;;;4.05;;
39880;SDS011;25554;44.954;10.068;2023-07-29T07:39:29;8.70;;;4.60;;
39880;SDS011;25554;44.954;10.068;2023-07-29T07:41:56;8.23;;;4.00;;
39880;SDS011;25554;44.954;10.068;2023-07-29T07:44:22;8.00;;;3.58;;
39880;SDS011;25554;44.954;10.068;2023-07-29T07:46:52;10.45;;;4.15;;
39880;SDS011;25554;44.954;10.068;2023-07-29T07:49:19;4.15;;;3.55;;
39880;SDS011;25554;44.954;10.068;2023-07-29T07:51:46;7.53;;;3.88;;
39880;SDS011;25554;44.954;10.068;2023-07-29T07:54:12;4.20;;;3.03;;
39880;SDS011;25554;44.954;10.068;2023-07-29T07:56:39;4.32;;;2.90;;
39880;SDS011;25554;44.954;10.068;2023-07-29T07:59:05;4.43;;;3.20;;
39880;SDS011;25554;44.954;10.068;2023-07-29T08:01:35;7.45;;;3.13;;
39880;SDS011;25554;44.954;10.068;2023-07-29T08:04:02;3.97;;;3.33;;
39880;SDS011;25554;44.954;10.068;2023-07-29T08:06:29;5.18;;;2.90;;
39880;SDS011;25554;44.954;10.068;2023-07-29T08:08:57;5.60;;;4.20;;
39880;SDS011;25554;44.954;10.068;2023-07-29T08:11:25;5.00;;;3.70;;
39880;SDS011;25554;44.954;10.068;2023-07-29T08:13:52;17.20;;;5.28;;
39880;SDS011;25554;44.954;10.068;2023-07-29T08:16:18;8.15;;;3.90;;
39880;SDS011;25554;44.954;10.068;2023-07-29T08:18:45;9.68;;;4.22;;
39880;SDS011;25554;44.954;10.068;2023-07-29T08:21:12;5.97;;;3.40;;
39880;SDS011;25554;44.954;10.068;2023-07-29T08:23:39;8.50;;;3.88;;
39880;SDS011;25554;44.954;10.068;2023-07-29T08:26:05;5.25;;;4.20;;
39880;SDS011;25554;44.954;10.068;2023-07-29T08:28:33;12.90;;;5.05;;
39880;SDS011;25554;44.954;10.068;2023-07-29T08:31:01;7.03;;;4.80;;
39880;SDS011;25554;44.954;10.068;2023-07-29T08:33:28;9.45;;;4.45;;
39880;SDS011;25554;44.954;10.068;2023-07-29T08:35:55;6.85;;;4.18;;
39880;SDS011;25554;44.954;10.068;2023-07-29T08:38:21;11.75;;;4.63;;
39880;SDS011;25554;44.954;10.068;2023-07-29T08:40:59;5.90;;;3.85;;
39880;SDS011;25554;44.954;10.068;2023-07-29T08:43:43;6.20;;;3.97;;
39880;SDS011;25554;44.954;10.068;2023-07-29T08:46:33;11.05;;;4.28;;
39880;SDS011;25554;44.954;10.068;2023-07-29T08:48:59;6.35;;;3.78;;
39880;SDS011;25554;44.954;10.068;2023-07-29T08:51:27;7.57;;;4.38;;
39880;SDS011;25554;44.954;10.068;2023-07-29T08:53:56;8.40;;;4.88;;
39880;SDS011;25554;44.954;10.068;2023-07-29T08:56:24;7.65;;;4.88;;
39880;SDS011;25554;44.954;10.068;2023-07-29T08:58:52;9.05;;;5.03;;
39880;SDS011;25554;44.954;10.068;2023-07-29T09:01:19;9.32;;;4.15;;
39880;SDS011;25554;44.954;10.068;2023-07-29T09:03:45;7.20;;;4.45;;
39880;SDS011;25554;44.954;10.068;2023-07-29T09:06:12;5.45;;;4.13;;
39880;SDS011;25554;44.954;10.068;2023-07-29T09:08:40;5.93;;;4.07;;
39880;SDS011;25554;44.954;10.068;2023-07-29T09:11:07;5.47;;;4.15;;
39880;SDS011;25554;44.954;10.068;2023-07-29T09:13:34;7.07;;;4.63;;
39880;SDS011;25554;44.954;10.068;2023-07-29T09:16:00;7.35;;;4.32;;
39880;SDS011;25554;44.954;10.068;2023-07-29T09:18:27;12.23;;;4.95;;
39880;SDS011;25554;44.954;10.068;2023-07-29T09:20:54;6.72;;;4.20;;
39880;SDS011;25554;44.954;10.068;2023-07-29T09:23:25;6.57;;;3.83;;
39880;SDS011;25554;44.954;10.068;2023-07-29T09:26:00;6.70;;;3.50;;
39880;SDS011;25554;44.954;10.068;2023-07-29T09:28:34;8.02;;;4.03;;
39880;SDS011;25554;44.954;10.068;2023-07-29T09:31:01;8.75;;;4.55;;
39880;SDS011;25554;44.954;10.068;2023-07-29T09:33:28;5.82;;;3.75;;
39880;SDS011;25554;44.954;10.068;2023-07-29T09:35:57;5.68;;;4.50;;
39880;SDS011;25554;44.954;10.068;2023-07-29T09:38:27;8.75;;;5.65;;
39880;SDS011;25554;44.954;10.068;2023-07-29T09:40:57;9.02;;;5.97;;
39880;SDS011;25554;44.954;10.068;2023-07-29T09:43:30;9.82;;;4.32;;
39880;SDS011;25554;44.954;10.068;2023-07-29T09:46:02;8.85;;;4.45;;
39880;SDS011;25554;44.954;10.068;2023-07-29T09:48:36;7.65;;;4.30;;
39880;SDS011;25554;44.954;10.068;2023-07-29T09:51:12;5.32;;;3.95;;
39880;SDS011;25554;44.954;10.068;2023-07-29T09:53:46;5.10;;;3.90;;
39880;SDS011;25554;44.954;10.068;2023-07-29T09:56:13;10.98;;;5.10;;
39880;SDS011;25554;44.954;10.068;2023-07-29T09:58:42;6.53;;;4.35;;
39880;SDS011;25554;44.954;10.068;2023-07-29T10:01:09;6.65;;;5.55;;
39880;SDS011;25554;44.954;10.068;2023-07-29T10:03:36;7.13;;;4.20;;
39880;SDS011;25554;44.954;10.068;2023-07-29T10:06:03;6.60;;;3.80;;
39880;SDS011;25554;44.954;10.068;2023-07-29T10:08:30;6.60;;;3.95;;
39880;SDS011;25554;44.954;10.068;2023-07-29T10:10:59;7.10;;;4.18;;
39880;SDS011;25554;44.954;10.068;2023-07-29T10:13:26;7.75;;;4.13;;
39880;SDS011;25554;44.954;10.068;2023-07-29T10:15:56;8.57;;;4.75;;
39880;SDS011;25554;44.954;10.068;2023-07-29T10:18:23;8.20;;;4.80;;
39880;SDS011;25554;44.954;10.068;2023-07-29T10:20:50;6.53;;;4.70;;
39880;SDS011;25554;44.954;10.068;2023-07-29T10:23:18;8.35;;;4.15;;
39880;SDS011;25554;44.954;10.068;2023-07-29T10:25:49;5.72;;;4.30;;
39880;SDS011;25554;44.954;10.068;2023-07-29T10:28:20;6.18;;;4.70;;
39880;SDS011;25554;44.954;10.068;2023-07-29T10:30:51;7.70;;;4.10;;
39880;SDS011;25554;44.954;10.068;2023-07-29T10:33:18;5.68;;;3.88;;
39880;SDS011;25554;44.954;10.068;2023-07-29T10:35:44;8.77;;;4.38;;
39880;SDS011;25554;44.954;10.068;2023-07-29T10:38:11;4.63;;;3.10;;
39880;SDS011;25554;44.954;10.068;2023-07-29T10:40:49;7.43;;;3.90;;
39880;SDS011;25554;44.954;10.068;2023-07-29T10:43:20;5.50;;;3.20;;
39880;SDS011;25554;44.954;10.068;2023-07-29T10:45:57;6.63;;;3.42;;
39880;SDS011;25554;44.954;10.068;2023-07-29T10:48:41;5.95;;;3.40;;
39880;SDS011;25554;44.954;10.068;2023-07-29T10:54:10;7.65;;;3.17;;
39880;SDS011;25554;44.954;10.068;2023-07-29T10:56:41;5.53;;;3.75;;
39880;SDS011;25554;44.954;10.068;2023-07-29T11:01:42;3.72;;;3.42;;
39880;SDS011;25554;44.954;10.068;2023-07-29T11:17:33;6.10;;;3.65;;
39880;SDS011;25554;44.954;10.068;2023-07-29T11:20:02;5.93;;;3.50;;
39880;SDS011;25554;44.954;10.068;2023-07-29T11:22:29;7.35;;;3.83;;
39880;SDS011;25554;44.954;10.068;2023-07-29T11:24:56;5.90;;;3.70;;
39880;SDS011;25554;44.954;10.068;2023-07-29T11:27:23;4.97;;;3.30;;
39880;SDS011;25554;44.954;10.068;2023-07-29T11:29:49;6.97;;;3.03;;
39880;SDS011;25554;44.954;10.068;2023-07-29T11:32:16;5.68;;;3.13;;
39880;SDS011;25554;44.954;10.068;2023-07-29T11:34:42;4.75;;;3.67;;
39880;SDS011;25554;44.954;10.068;2023-07-29T11:37:10;5.30;;;3.45;;
39880;SDS011;25554;44.954;10.068;2023-07-29T11:39:40;4.35;;;3.35;;
39880;SDS011;25554;44.954;10.068;2023-07-29T11:42:10;4.15;;;3.17;;
39880;SDS011;25554;44.954;10.068;2023-07-29T11:44:37;5.90;;;4.40;;
39880;SDS011;25554;44.954;10.068;2023-07-29T11:47:07;4.72;;;3.75;;
39880;SDS011;25554;44.954;10.068;2023-07-29T11:49:34;5.07;;;2.90;;
39880;SDS011;25554;44.954;10.068;2023-07-29T11:52:05;8.20;;;3.70;;
39880;SDS011;25554;44.954;10.068;2023-07-29T11:54:35;7.13;;;3.47;;
39880;SDS011;25554;44.954;10.068;2023-07-29T11:57:06;6.22;;;3.75;;
39880;SDS011;25554;44.954;10.068;2023-07-29T11:59:34;5.30;;;3.53;;
39880;SDS011;25554;44.954;10.068;2023-07-29T12:02:02;6.60;;;3.80;;
39880;SDS011;25554;44.954;10.068;2023-07-29T12:04:35;5.93;;;3.72;;
39880;SDS011;25554;44.954;10.068;2023-07-29T12:07:03;5.72;;;2.80;;
39880;SDS011;25554;44.954;10.068;2023-07-29T12:09:29;5.35;;;3.40;;
39880;SDS011;25554;44.954;10.068;2023-07-29T12:11:56;4.30;;;3.63;;
39880;SDS011;25554;44.954;10.068;2023-07-29T12:14:25;5.15;;;3.88;;
39880;SDS011;25554;44.954;10.068;2023-07-29T12:16:53;5.80;;;3.58;;
39880;SDS011;25554;44.954;10.068;2023-07-29T12:19:19;4.25;;;3.00;;
39880;SDS011;25554;44.954;10.068;2023-07-29T12:21:47;4.55;;;3.35;;
39880;SDS011;25554;44.954;10.068;2023-07-29T12:24:14;5.47;;;3.80;;
39880;SDS011;25554;44.954;10.068;2023-07-29T12:26:41;6.43;;;3.10;;
39880;SDS011;25554;44.954;10.068;2023-07-29T12:29:14;5.97;;;3.38;;
39880;SDS011;25554;44.954;10.068;2023-07-29T12:31:42;6.18;;;3.20;;
39880;SDS011;25554;44.954;10.068;2023-07-29T12:34:08;5.35;;;3.50;;
39880;SDS011;25554;44.954;10.068;2023-07-29T12:36:42;4.07;;;3.13;;
39880;SDS011;25554;44.954;10.068;2023-07-29T12:39:15;4.00;;;3.17;;
39880;SDS011;25554;44.954;10.068;2023-07-29T12:41:43;4.53;;;3.45;;
39880;SDS011;25554;44.954;10.068;2023-07-29T12:44:09;6.32;;;3.25;;
39880;SDS011;25554;44.954;10.068;2023-07-29T12:46:36;5.95;;;2.88;;
39880;SDS011;25554;44.954;10.068;2023-07-29T12:49:02;4.97;;;3.60;;
39880;SDS011;25554;44.954;10.068;2023-07-29T12:51:29;5.45;;;3.45;;
39880;SDS011;25554;44.954;10.068;2023-07-29T12:53:56;7.95;;;3.60;;
39880;SDS011;25554;44.954;10.068;2023-07-29T12:56:22;4.10;;;3.03;;
39880;SDS011;25554;44.954;10.068;2023-07-29T12:58:49;5.70;;;3.40;;
39880;SDS011;25554;44.954;10.068;2023-07-29T13:01:15;6.40;;;3.65;;
39880;SDS011;25554;44.954;10.068;2023-07-29T13:03:44;5.63;;;3.53;;
39880;SDS011;25554;44.954;10.068;2023-07-29T13:06:10;5.68;;;3.42;;
39880;SDS011;25554;44.954;10.068;2023-07-29T13:08:37;5.20;;;3.40;;
39880;SDS011;25554;44.954;10.068;2023-07-29T13:11:04;4.10;;;3.00;;
39880;SDS011;25554;44.954;10.068;2023-07-29T13:13:30;4.85;;;3.45;;
39880;SDS011;25554;44.954;10.068;2023-07-29T13:15:57;5.93;;;3.20;;
39880;SDS011;25554;44.954;10.068;2023-07-29T13:18:24;7.47;;;3.20;;
39880;SDS011;25554;44.954;10.068;2023-07-29T13:20:50;7.30;;;3.25;;
39880;SDS011;25554;44.954;10.068;2023-07-29T13:23:17;8.65;;;3.72;;
39880;SDS011;25554;44.954;10.068;2023-07-29T13:25:43;4.78;;;3.40;;
39880;SDS011;25554;44.954;10.068;2023-07-29T13:28:10;5.88;;;3.20;;
39880;SDS011;25554;44.954;10.068;2023-07-29T13:30:41;3.85;;;2.80;;
39880;SDS011;25554;44.954;10.068;2023-07-29T13:33:08;6.10;;;3.03;;
39880;SDS011;25554;44.954;10.068;2023-07-29T13:35:34;5.38;;;3.10;;
39880;SDS011;25554;44.954;10.068;2023-07-29T13:38:01;4.00;;;2.90;;
39880;SDS011;25554;44.954;10.068;2023-07-29T13:40:27;7.22;;;3.22;;
39880;SDS011;25554;44.954;10.068;2023-07-29T13:42:54;5.75;;;3.28;;
39880;SDS011;25554;44.954;10.068;2023-07-29T13:45:21;4.18;;;2.90;;
39880;SDS011;25554;44.954;10.068;2023-07-29T13:47:48;4.93;;;3.22;;
39880;SDS011;25554;44.954;10.068;2023-07-29T13:50:16;4.78;;;3.22;;
39880;SDS011;25554;44.954;10.068;2023-07-29T13:52:43;4.45;;;3.08;;
39880;SDS011;25554;44.954;10.068;2023-07-29T13:55:10;4.55;;;3.38;;
39880;SDS011;25554;44.954;10.068;2023-07-29T13:57:37;5.25;;;3.00;;
39880;SDS011;25554;44.954;10.068;2023-07-29T14:00:07;4.07;;;3.10;;
39880;SDS011;25554;44.954;10.068;2023-07-29T14:02:39;5.90;;;3.25;;
39880;SDS011;25554;44.954;10.068;2023-07-29T14:05:06;3.60;;;3.30;;
39880;SDS011;25554;44.954;10.068;2023-07-29T14:07:33;7.97;;;3.38;;
39880;SDS011;25554;44.954;10.068;2023-07-29T14:09:59;3.78;;;3.08;;
39880;SDS011;25554;44.954;10.068;2023-07-29T14:12:26;8.45;;;3.28;;
39880;SDS011;25554;44.954;10.068;2023-07-29T14:14:52;3.75;;;3.20;;
39880;SDS011;25554;44.954;10.068;2023-07-29T14:17:19;3.15;;;2.85;;
39880;SDS011;25554;44.954;10.068;2023-07-29T14:19:45;5.20;;;2.97;;
39880;SDS011;25554;44.954;10.068;2023-07-29T14:22:12;8.82;;;6.63;;
39880;SDS011;25554;44.954;10.068;2023-07-29T14:24:39;11.70;;;7.35;;
39880;SDS011;25554;44.954;10.068;2023-07-29T14:27:05;5.47;;;3.35;;
39880;SDS011;25554;44.954;10.068;2023-07-29T14:29:32;6.80;;;3.88;;
39880;SDS011;25554;44.954;10.068;2023-07-29T14:31:58;4.70;;;3.50;;
39880;SDS011;25554;44.954;10.068;2023-07-29T14:34:25;6.15;;;3.45;;
39880;SDS011;25554;44.954;10.068;2023-07-29T14:36:52;5.68;;;3.78;;
39880;SDS011;25554;44.954;10.068;2023-07-29T14:39:18;9.05;;;3.60;;
39880;SDS011;25554;44.954;10.068;2023-07-29T14:41:45;5.78;;;3.47;;
39880;SDS011;25554;44.954;10.068;2023-07-29T14:44:11;5.65;;;3.70;;
39880;SDS011;25554;44.954;10.068;2023-07-29T14:46:38;6.75;;;3.25;;
39880;SDS011;25554;44.954;10.068;2023-07-29T14:49:04;5.43;;;4.22;;
39880;SDS011;25554;44.954;10.068;2023-07-29T14:51:31;9.07;;;3.95;;
39880;SDS011;25554;44.954;10.068;2023-07-29T14:53:57;5.65;;;3.28;;
39880;SDS011;25554;44.954;10.068;2023-07-29T14:56:24;5.95;;;3.90;;
39880;SDS011;25554;44.954;10.068;2023-07-29T14:58:50;8.25;;;3.85;;
39880;SDS011;25554;44.954;10.068;2023-07-29T15:01:17;6.75;;;3.88;;
39880;SDS011;25554;44.954;10.068;2023-07-29T15:03:44;4.63;;;3.22;;
39880;SDS011;25554;44.954;10.068;2023-07-29T15:06:10;10.30;;;4.35;;
39880;SDS011;25554;44.954;10.068;2023-07-29T15:08:37;4.63;;;3.58;;
39880;SDS011;25554;44.954;10.068;2023-07-29T15:11:03;6.40;;;3.30;;
39880;SDS011;25554;44.954;10.068;2023-07-29T15:13:30;5.07;;;3.60;;
39880;SDS011;25554;44.954;10.068;2023-07-29T15:15:57;3.53;;;3.22;;
39880;SDS011;25554;44.954;10.068;2023-07-29T15:18:23;7.78;;;3.92;;
39880;SDS011;25554;44.954;10.068;2023-07-29T15:20:50;4.53;;;3.25;;
39880;SDS011;25554;44.954;10.068;2023-07-29T15:23:16;7.03;;;3.88;;
39880;SDS011;25554;44.954;10.068;2023-07-29T15:25:43;4.47;;;3.53;;
39880;SDS011;25554;44.954;10.068;2023-07-29T15:28:09;3.70;;;3.25;;
39880;SDS011;25554;44.954;10.068;2023-07-29T15:30:36;5.07;;;3.50;;
39880;SDS011;25554;44.954;10.068;2023-07-29T15:33:03;5.53;;;3.67;;
39880;SDS011;25554;44.954;10.068;2023-07-29T15:35:29;5.63;;;3.45;;
39880;SDS011;25554;44.954;10.068;2023-07-29T15:38:03;4.80;;;3.53;;
39880;SDS011;25554;44.954;10.068;2023-07-29T15:40:30;6.18;;;3.13;;
39880;SDS011;25554;44.954;10.068;2023-07-29T15:42:56;7.78;;;4.28;;
39880;SDS011;25554;44.954;10.068;2023-07-29T15:45:23;7.47;;;3.45;;
39880;SDS011;25554;44.954;10.068;2023-07-29T15:47:49;5.93;;;3.60;;
39880;SDS011;25554;44.954;10.068;2023-07-29T15:50:16;8.23;;;3.88;;